Time;durP1;ratioP1;P1;durP2;ratioP2;P2;SDS_P1;SDS_P2;PMS_P1;PMS_P2;Temp;Humidity;BMP_temperature;BMP_pressure;BME280_temperature;BME280_humidity;BME280_pressure;Samples;Min_cycle;Max_cycle;Signal;HPM_P1;HPM_P2
2021/11/12 14:36:44;;;;;;;;;;;14.80;99.90;;;;;;5132219;28;19912;-55
2021/11/12 14:39:16;;;;;;;;;;;16.00;99.90;;;;;;5132358;28;19908;-56
2021/11/12 14:44:54;;;;;;;;;;;17.90;99.90;;;;;;5132226;28;19908;-57
2021/11/12 14:47:30;;;;;;;;;;;18.60;99.90;;;;;;5131970;28;19968;-57
2021/11/12 14:50:05;;;;;;;;;;;19.20;99.90;;;;;;5132110;28;19912;-57
2021/11/12 14:52:30;;;;;;;;;;;19.70;99.90;;;;;;5131947;28;20057;-57
2021/11/12 14:55:05;;;;;;;;;;;20.00;99.90;;;;;;5131782;28;19951;-56
2021/11/12 14:57:37;;;;;;;;;;;20.30;99.90;;;;;;5131536;28;19908;-57
2021/11/12 15:00:10;;;;;;;;;;;20.60;99.90;;;;;;5131618;28;19908;-58
2021/11/12 15:02:36;;;;;;;;;;;20.90;99.90;;;;;;5131779;28;20363;-57
2021/11/12 15:05:02;;;;;;;;;;;21.10;99.90;;;;;;5131965;28;19938;-56
2021/11/12 15:07:37;;;;;;;;;;;21.30;99.90;;;;;;5113284;28;20014;-57
2021/11/12 15:10:06;;;;;;;;;;;21.40;99.90;;;;;;5131221;28;19912;-56
2021/11/12 15:12:31;;;;;;;;;;;21.60;99.90;;;;;;5112983;28;19915;-57
2021/11/12 15:15:00;;;;;;;;;;;21.80;99.90;;;;;;5131561;28;19942;-59
2021/11/12 15:17:26;;;;;;;;;;;21.90;99.90;;;;;;5131500;28;19908;-58
2021/11/12 15:19:51;;;;;;;;;;;22.00;99.90;;;;;;5131368;28;19956;-55
2021/11/12 15:30:01;;;;;;;;;;;22.10;99.90;;;;;;5131045;28;20274;-55
2021/11/12 15:32:35;;;;;;;;;;;22.10;99.90;;;;;;5130903;28;19926;-55
2021/11/12 15:35:06;;;;;;;;;;;22.10;99.90;;;;;;5131065;28;19908;-55
2021/11/12 15:40:10;;;;;;;;;;;22.20;99.90;;;;;;5130600;28;19933;-55
2021/11/12 15:45:11;;;;;;;;;;;22.30;99.90;;;;;;5118542;28;20287;-53
2021/11/12 15:47:44;;;;;;;;;;;22.40;99.90;;;;;;5117046;28;20393;-55
2021/11/12 15:50:16;;;;;;;;;;;22.40;99.90;;;;;;5117245;28;19914;-55
2021/11/12 15:58:34;;;;;;;;;;;22.50;99.90;;;;;;5099084;28;20245;-54
2021/11/12 16:01:16;;;;;;;;;;;22.60;99.90;;;;;;5116962;28;19996;-55
2021/11/12 16:06:37;;;;;;;;;;;22.60;99.90;;;;;;5117313;28;19908;-54
2021/11/12 16:17:02;;;;;;;;;;;22.70;99.90;;;;;;5117006;28;20364;-55
2021/11/12 16:22:23;;;;;;;;;;;22.80;99.90;;;;;;5116609;28;20364;-52
2021/11/12 16:27:12;;;;;;;;;;;22.80;99.90;;;;;;5116581;28;19915;-60
2021/11/12 16:29:42;;;;;;;;;;;22.80;99.90;;;;;;5116440;28;19908;-67
2021/11/12 16:32:10;;;;;;;;;;;22.80;99.90;;;;;;5116245;28;19922;-66
2021/11/12 16:34:42;;;;;;;;;;;22.60;99.90;;;;;;5116369;28;19916;-67
2021/11/12 16:37:10;;;;;;;;;;;22.60;99.90;;;;;;5115358;28;20364;-67
2021/11/12 16:39:41;;;;;;;;;;;22.60;99.90;;;;;;5113463;28;19912;-66
2021/11/12 16:44:47;;;;;;;;;;;22.60;99.90;;;;;;5113704;28;20447;-71
2021/11/12 16:55:24;;;;;;;;;;;22.90;99.90;;;;;;5112622;28;19954;-71
2021/11/12 18:05:12;;;;;;;;;;;23.30;99.90;;;;;;5111115;28;19911;-68
2021/11/12 18:07:53;;;;;;;;;;;23.40;99.90;;;;;;5111380;28;20367;-68
2021/11/12 18:19:41;;;;;;;;;;;23.40;99.90;;;;;;5111660;28;19916;-68
2021/11/12 18:24:34;;;;;;;;;;;23.40;99.90;;;;;;5112032;28;20331;-68
2021/11/12 21:48:07;;;;;;;;;;;23.50;98.90;;;;;;5114888;28;19915;-70
2021/11/12 21:50:33;;;;;;;;;;;23.50;98.90;;;;;;5114870;28;20012;-70
2021/11/12 21:52:59;;;;;;;;;;;23.50;98.90;;;;;;5114874;28;19920;-70
2021/11/12 21:55:24;;;;;;;;;;;23.50;98.90;;;;;;5114843;28;20005;-70
2021/11/12 21:57:50;;;;;;;;;;;23.50;98.80;;;;;;5114250;28;20378;-70
2021/11/12 22:00:16;;;;;;;;;;;23.50;98.80;;;;;;5114421;28;19961;-70
2021/11/12 22:02:42;;;;;;;;;;;23.50;98.90;;;;;;5114715;28;20283;-70
2021/11/12 22:05:07;;;;;;;;;;;23.50;98.80;;;;;;5114671;28;19915;-70
2021/11/12 22:07:36;;;;;;;;;;;23.50;98.80;;;;;;5114690;28;19914;-71
2021/11/12 22:10:02;;;;;;;;;;;23.50;98.80;;;;;;5114480;28;20427;-72
2021/11/12 22:12:27;;;;;;;;;;;23.50;98.80;;;;;;5095802;28;20023;-72
2021/11/12 22:14:53;;;;;;;;;;;23.50;98.80;;;;;;5114373;28;19918;-72
2021/11/12 22:17:18;;;;;;;;;;;23.50;98.80;;;;;;5114414;28;19955;-71
2021/11/12 22:19:43;;;;;;;;;;;23.50;98.80;;;;;;5096015;28;19974;-72
2021/11/12 22:22:09;;;;;;;;;;;23.50;98.80;;;;;;5114455;28;19908;-72
2021/11/12 22:24:34;;;;;;;;;;;23.50;98.70;;;;;;5114375;28;19912;-72
2021/11/12 22:27:00;;;;;;;;;;;23.50;98.70;;;;;;5113989;28;19914;-72
2021/11/12 22:29:25;;;;;;;;;;;23.50;98.70;;;;;;5114257;28;19990;-72
2021/11/12 22:31:51;;;;;;;;;;;23.50;98.70;;;;;;5114137;28;19934;-65
2021/11/12 22:34:16;;;;;;;;;;;23.50;98.70;;;;;;5114183;28;19919;-70
2021/11/12 22:36:42;;;;;;;;;;;23.50;98.70;;;;;;5095975;28;19908;-70
2021/11/12 22:39:09;;;;;;;;;;;23.50;98.70;;;;;;5114258;28;19915;-71
2021/11/12 22:41:35;;;;;;;;;;;23.50;98.70;;;;;;5113810;28;19918;-70
2021/11/12 22:44:00;;;;;;;;;;;23.50;98.70;;;;;;5113964;28;19908;-70
2021/11/12 22:46:27;;;;;;;;;;;23.50;98.70;;;;;;5114104;28;19951;-70
2021/11/12 22:48:52;;;;;;;;;;;23.50;98.70;;;;;;5114258;28;19912;-71
2021/11/12 22:51:18;;;;;;;;;;;23.50;98.70;;;;;;5114120;28;19960;-70
2021/11/12 22:53:43;;;;;;;;;;;23.50;98.70;;;;;;5114178;28;19966;-70
2021/11/12 22:56:09;;;;;;;;;;;23.50;98.70;;;;;;5117809;28;20395;-70
2021/11/12 22:58:34;;;;;;;;;;;23.50;98.70;;;;;;5118162;28;20326;-70
2021/11/12 23:01:05;;;;;;;;;;;23.50;98.70;;;;;;5118175;28;19912;-70
2021/11/12 23:03:31;;;;;;;;;;;23.50;98.70;;;;;;5118158;28;19912;-70
2021/11/12 23:05:56;;;;;;;;;;;23.50;98.60;;;;;;5117933;28;19916;-71
2021/11/12 23:08:21;;;;;;;;;;;23.50;98.60;;;;;;5117541;28;19911;-70
2021/11/12 23:10:47;;;;;;;;;;;23.50;98.60;;;;;;5117915;28;19908;-70
2021/11/12 23:13:12;;;;;;;;;;;23.50;98.60;;;;;;5099403;28;20382;-70
2021/11/12 23:15:40;;;;;;;;;;;23.50;98.60;;;;;;5117938;28;20441;-71
2021/11/12 23:18:05;;;;;;;;;;;23.40;98.60;;;;;;5117787;28;19912;-71
2021/11/12 23:20:31;;;;;;;;;;;23.40;98.60;;;;;;5117736;28;19907;-70
2021/11/12 23:22:57;;;;;;;;;;;23.40;98.60;;;;;;5117339;28;20344;-71
2021/11/12 23:25:22;;;;;;;;;;;23.40;98.60;;;;;;5117497;28;19961;-71
2021/11/12 23:27:48;;;;;;;;;;;23.40;98.60;;;;;;5117554;28;20010;-70
2021/11/12 23:30:14;;;;;;;;;;;23.40;98.60;;;;;;5117747;28;19930;-71
2021/11/12 23:32:39;;;;;;;;;;;23.40;98.60;;;;;;5117284;28;20406;-70
2021/11/12 23:35:05;;;;;;;;;;;23.40;98.60;;;;;;5117456;28;19912;-71
2021/11/12 23:37:31;;;;;;;;;;;23.30;98.60;;;;;;5116869;28;20394;-70
2021/11/12 23:39:57;;;;;;;;;;;23.30;98.60;;;;;;5117425;28;19943;-71
2021/11/12 23:42:22;;;;;;;;;;;23.30;98.60;;;;;;5117179;28;19915;-70
2021/11/12 23:44:47;;;;;;;;;;;23.30;98.60;;;;;;5117246;28;19914;-70
2021/11/12 23:47:13;;;;;;;;;;;23.30;98.60;;;;;;5117321;28;19908;-71
2021/11/12 23:49:38;;;;;;;;;;;23.30;98.60;;;;;;5117264;28;19908;-71
2021/11/12 23:52:04;;;;;;;;;;;23.30;98.60;;;;;;5116793;28;20398;-71
2021/11/12 23:54:29;;;;;;;;;;;23.30;98.60;;;;;;5117223;28;19968;-71
2021/11/12 23:56:55;;;;;;;;;;;23.30;98.60;;;;;;5116963;28;19912;-70
2021/11/12 23:59:21;;;;;;;;;;;23.30;98.60;;;;;;5117184;28;19907;-70
